createdAt,value
2023-05-05T00:01:11.023Z,15.66
2023-05-05T00:03:47.396Z,15.67
2023-05-05T00:06:20.360Z,15.65
2023-05-05T00:08:53.134Z,15.64
2023-05-05T00:11:26.338Z,15.60
2023-05-05T00:14:00.573Z,15.47
2023-05-05T00:16:33.865Z,15.36
2023-05-05T00:19:07.242Z,15.41
2023-05-05T00:21:40.060Z,15.36
2023-05-05T00:24:12.909Z,15.04
2023-05-05T00:26:45.805Z,14.96
2023-05-05T00:29:19.943Z,15.06
2023-05-05T00:31:53.155Z,15.23
2023-05-05T00:34:26.344Z,15.30
2023-05-05T00:36:59.193Z,14.82
2023-05-05T00:39:32.033Z,14.79
2023-05-05T00:42:04.809Z,14.93
2023-05-05T00:44:42.202Z,14.45
2023-05-05T00:47:16.761Z,14.74
2023-05-05T00:49:49.602Z,14.89
2023-05-05T00:52:22.562Z,14.79
2023-05-05T00:54:55.604Z,15.04
2023-05-05T00:57:28.713Z,15.10
2023-05-05T01:00:04.799Z,15.01
2023-05-05T01:02:40.364Z,14.98
2023-05-05T01:05:15.449Z,14.88
2023-05-05T01:08:09.238Z,14.75
2023-05-05T01:10:46.982Z,14.83
2023-05-05T01:13:31.728Z,15.01
2023-05-05T01:16:13.944Z,14.96
2023-05-05T01:18:51.092Z,14.60
2023-05-05T01:21:28.079Z,14.57
2023-05-05T01:24:23.546Z,14.45
2023-05-05T01:27:04.570Z,14.50
2023-05-05T01:29:57.362Z,14.51
2023-05-05T01:32:35.144Z,14.55
2023-05-05T01:35:15.066Z,14.20
2023-05-05T01:37:52.694Z,14.17
2023-05-05T01:40:31.483Z,14.43
2023-05-05T01:43:05.129Z,14.58
2023-05-05T01:45:43.350Z,14.58
2023-05-05T01:48:20.451Z,14.63
2023-05-05T01:50:54.978Z,14.69
2023-05-05T01:53:30.254Z,14.60
2023-05-05T01:56:03.996Z,14.68
2023-05-05T01:58:38.417Z,14.49
2023-05-05T02:01:13.577Z,14.64
2023-05-05T02:03:48.876Z,14.58
2023-05-05T02:06:23.864Z,14.36
2023-05-05T02:08:58.890Z,14.55
2023-05-05T02:11:32.155Z,14.68
2023-05-05T02:14:06.747Z,14.73
2023-05-05T02:16:41.415Z,14.69
2023-05-05T02:19:16.334Z,14.50
2023-05-05T02:21:49.187Z,14.33
2023-05-05T02:24:22.054Z,14.52
2023-05-05T02:26:58.772Z,14.64
2023-05-05T02:29:35.764Z,14.71
2023-05-05T02:32:15.502Z,14.55
2023-05-05T02:34:51.103Z,14.43
2023-05-05T02:37:28.365Z,14.37
2023-05-05T02:40:05.625Z,14.43
2023-05-05T02:42:42.534Z,14.26
2023-05-05T02:45:21.089Z,14.17
2023-05-05T02:47:55.854Z,14.24
2023-05-05T02:50:31.126Z,14.32
2023-05-05T02:53:15.156Z,14.57
2023-05-05T02:55:53.987Z,14.61
2023-05-05T02:58:37.743Z,14.63
2023-05-05T03:01:22.612Z,14.66
2023-05-05T03:04:03.966Z,14.63
2023-05-05T03:06:44.252Z,14.61
2023-05-05T03:09:27.162Z,14.66
2023-05-05T03:12:06.390Z,14.76
2023-05-05T03:14:52.730Z,14.75
2023-05-05T03:17:28.843Z,14.80
2023-05-05T03:20:03.481Z,14.81
2023-05-05T03:22:39.757Z,14.78
2023-05-05T03:25:17.234Z,14.79
2023-05-05T03:27:50.917Z,14.78
2023-05-05T03:30:26.578Z,14.79
2023-05-05T03:32:59.473Z,14.82
2023-05-05T03:35:33.666Z,14.81
2023-05-05T03:38:07.878Z,14.85
2023-05-05T03:40:44.474Z,14.79
2023-05-05T03:43:20.219Z,14.81
2023-05-05T03:45:53.372Z,14.70
2023-05-05T03:48:26.601Z,14.68
2023-05-05T03:51:00.076Z,14.63
2023-05-05T03:53:36.433Z,14.64
2023-05-05T03:56:12.088Z,14.69
2023-05-05T03:58:44.828Z,14.68
2023-05-05T04:01:18.776Z,14.72
2023-05-05T04:03:52.056Z,14.69
2023-05-05T04:06:26.236Z,14.73
2023-05-05T04:09:00.766Z,14.72
2023-05-05T04:11:33.576Z,14.68
2023-05-05T04:14:06.895Z,14.74
2023-05-05T04:16:40.141Z,14.76
2023-05-05T04:19:13.969Z,14.75
2023-05-05T04:21:47.217Z,14.65
2023-05-05T04:24:24.601Z,14.51
2023-05-05T04:26:58.489Z,14.55
2023-05-05T04:29:31.700Z,14.61
2023-05-05T04:32:04.879Z,14.58
2023-05-05T04:34:37.846Z,14.53
2023-05-05T04:37:11.325Z,14.55
2023-05-05T04:39:46.416Z,14.53
2023-05-05T04:42:20.080Z,14.57
2023-05-05T04:44:52.894Z,14.60
2023-05-05T04:47:25.733Z,14.53
2023-05-05T04:49:58.806Z,14.57
2023-05-05T04:52:31.616Z,14.63
2023-05-05T04:55:07.212Z,14.57
2023-05-05T04:57:40.056Z,14.60
2023-05-05T05:00:13.789Z,14.56
2023-05-05T05:02:46.731Z,14.49
2023-05-05T05:05:19.810Z,14.62
2023-05-05T05:07:52.834Z,14.62
2023-05-05T05:10:27.192Z,14.64
2023-05-05T05:13:00.129Z,14.72
2023-05-05T05:15:33.073Z,14.77
2023-05-05T05:18:06.069Z,14.88
2023-05-05T05:20:39.313Z,14.94
2023-05-05T05:23:14.796Z,14.95
2023-05-05T05:25:51.581Z,15.08
2023-05-05T05:28:26.640Z,15.19
2023-05-05T05:31:04.675Z,15.31
2023-05-05T05:33:37.957Z,15.34
2023-05-05T05:36:10.894Z,15.38
2023-05-05T05:38:44.211Z,15.42
2023-05-05T05:41:18.845Z,15.50
2023-05-05T05:43:51.650Z,15.55
2023-05-05T05:46:24.806Z,15.72
2023-05-05T05:48:58.421Z,15.75
2023-05-05T05:51:31.568Z,15.81
2023-05-05T05:54:04.810Z,15.88
2023-05-05T05:56:38.962Z,15.87
2023-05-05T05:59:12.400Z,15.90
2023-05-05T06:01:47.135Z,15.89
2023-05-05T06:04:20.502Z,15.95
2023-05-05T06:06:53.354Z,16.04
2023-05-05T06:09:26.338Z,16.08
2023-05-05T06:12:03.727Z,16.34
2023-05-05T06:14:37.557Z,16.31
2023-05-05T06:17:10.826Z,16.36
2023-05-05T06:19:43.765Z,16.48
2023-05-05T06:22:17.281Z,16.50
2023-05-05T06:24:50.700Z,16.59
2023-05-05T06:27:25.782Z,16.67
2023-05-05T06:29:58.620Z,16.90
2023-05-05T06:32:31.470Z,16.79
2023-05-05T06:35:04.648Z,16.97
2023-05-05T06:37:37.511Z,17.06
2023-05-05T06:40:11.440Z,17.10
2023-05-05T06:42:45.866Z,17.28
2023-05-05T06:45:23.400Z,17.34
2023-05-05T06:47:56.265Z,17.48
2023-05-05T06:50:29.104Z,17.55
2023-05-05T06:53:02.126Z,17.70
2023-05-05T06:55:35.084Z,17.56
2023-05-05T06:58:09.374Z,17.68
2023-05-05T07:00:42.718Z,17.86
2023-05-05T07:03:15.721Z,17.92
2023-05-05T07:05:48.591Z,18.00
2023-05-05T07:08:21.569Z,17.99
2023-05-05T07:10:54.422Z,18.22
2023-05-05T07:13:28.713Z,18.19
2023-05-05T07:16:01.561Z,18.57
2023-05-05T07:18:34.892Z,18.34
2023-05-05T07:21:07.785Z,18.31
2023-05-05T07:23:40.701Z,18.47
2023-05-05T07:26:13.774Z,18.70
2023-05-05T07:28:47.996Z,18.72
2023-05-05T07:31:22.152Z,18.74
2023-05-05T07:33:54.990Z,18.81
2023-05-05T07:36:28.870Z,18.90
2023-05-05T07:39:01.760Z,18.67
2023-05-05T07:41:34.629Z,18.93
2023-05-05T07:44:08.813Z,18.88
2023-05-05T07:46:41.850Z,19.02
2023-05-05T07:49:14.690Z,19.38
2023-05-05T07:51:50.012Z,19.39
2023-05-05T07:54:22.817Z,19.74
2023-05-05T07:56:57.184Z,19.68
2023-05-05T07:59:31.680Z,19.73
2023-05-05T08:02:04.741Z,19.23
2023-05-05T08:04:37.826Z,19.55
2023-05-05T08:07:11.472Z,19.82
2023-05-05T08:09:44.337Z,19.55
2023-05-05T08:12:19.043Z,19.72
2023-05-05T08:14:53.074Z,20.17
2023-05-05T08:17:27.020Z,19.73
2023-05-05T08:19:59.904Z,19.61
2023-05-05T08:22:32.713Z,19.87
2023-05-05T08:25:08.749Z,20.76
2023-05-05T08:27:43.110Z,20.73
2023-05-05T08:30:20.730Z,20.57
2023-05-05T08:32:53.535Z,21.02
2023-05-05T08:35:26.429Z,20.86
2023-05-05T08:37:59.449Z,21.38
2023-05-05T08:40:34.712Z,21.24
2023-05-05T08:43:07.794Z,20.51
2023-05-05T08:45:42.755Z,20.30
2023-05-05T08:48:19.499Z,20.30
2023-05-05T08:50:59.499Z,21.20
2023-05-05T08:53:47.616Z,21.06
2023-05-05T08:56:21.808Z,21.08
2023-05-05T08:58:56.234Z,21.70
2023-05-05T09:01:31.347Z,21.80
2023-05-05T09:04:05.404Z,22.06
2023-05-05T09:06:38.575Z,21.10
2023-05-05T09:09:11.872Z,21.22
2023-05-05T09:11:46.891Z,21.63
2023-05-05T09:14:19.758Z,21.57
2023-05-05T09:16:53.940Z,22.10
2023-05-05T09:19:26.955Z,22.20
2023-05-05T09:21:59.900Z,22.26
2023-05-05T09:24:32.672Z,23.10
2023-05-05T09:27:22.605Z,23.32
2023-05-05T09:29:56.167Z,22.71
2023-05-05T09:32:30.648Z,22.95
2023-05-05T09:35:03.493Z,23.13
2023-05-05T09:37:37.745Z,23.24
2023-05-05T09:40:11.212Z,22.81
2023-05-05T09:42:44.923Z,24.22
2023-05-05T09:45:28.182Z,22.93
2023-05-05T09:48:02.457Z,23.46
2023-05-05T09:50:44.539Z,22.92
2023-05-05T09:53:17.376Z,23.48
2023-05-05T09:55:54.868Z,23.63
2023-05-05T09:58:30.154Z,24.47
2023-05-05T10:01:03.051Z,23.74
2023-05-05T10:03:50.882Z,24.39
2023-05-05T10:06:41.047Z,23.84
2023-05-05T10:09:14.595Z,23.96
2023-05-05T10:11:48.433Z,23.74
2023-05-05T10:14:21.426Z,24.71
2023-05-05T10:16:55.594Z,24.98
2023-05-05T10:19:34.935Z,25.49
2023-05-05T10:22:10.267Z,24.85
2023-05-05T10:24:50.216Z,24.33
2023-05-05T10:27:25.240Z,24.04
2023-05-05T10:30:04.461Z,24.21
2023-05-05T10:35:22.729Z,24.81
2023-05-05T10:37:56.150Z,25.41
2023-05-05T10:40:29.469Z,25.24
2023-05-05T10:43:02.468Z,25.00
2023-05-05T10:45:35.688Z,26.36
2023-05-05T10:48:22.329Z,26.76
2023-05-05T10:51:02.929Z,25.97
2023-05-05T10:53:45.432Z,25.40
2023-05-05T10:56:25.269Z,26.59
2023-05-05T10:59:00.254Z,26.74
2023-05-05T11:01:34.836Z,26.87
2023-05-05T11:04:25.982Z,27.04
2023-05-05T11:07:26.001Z,24.95
2023-05-05T11:10:01.618Z,25.35
2023-05-05T11:13:13.352Z,25.41
2023-05-05T11:15:46.243Z,25.16
2023-05-05T11:18:43.093Z,24.22
2023-05-05T11:21:17.200Z,24.25
2023-05-05T11:23:52.953Z,25.14
2023-05-05T11:26:51.555Z,25.20
2023-05-05T11:29:24.532Z,24.45
2023-05-05T11:32:13.381Z,24.94
2023-05-05T11:34:49.670Z,25.36
2023-05-05T11:37:24.174Z,26.21
2023-05-05T11:40:08.870Z,26.52
2023-05-05T11:42:41.897Z,25.54
2023-05-05T11:45:25.429Z,26.62
2023-05-05T11:48:25.486Z,27.70
2023-05-05T11:50:58.677Z,28.07
2023-05-05T11:53:31.630Z,27.24
2023-05-05T11:56:10.040Z,26.33
2023-05-05T11:58:42.892Z,25.51
2023-05-05T12:01:16.626Z,25.06
2023-05-05T12:03:49.893Z,25.52
2023-05-05T12:06:23.196Z,26.04
2023-05-05T12:08:56.202Z,25.95
2023-05-05T12:11:30.490Z,26.28
2023-05-05T12:14:10.754Z,25.52
2023-05-05T12:16:55.134Z,23.76
2023-05-05T12:19:32.747Z,24.21
2023-05-05T12:22:05.976Z,24.37
2023-05-05T12:24:38.894Z,24.20
2023-05-05T12:27:13.263Z,24.06
2023-05-05T12:29:46.081Z,24.28
2023-05-05T12:32:20.017Z,23.59
2023-05-05T12:34:56.091Z,23.28
2023-05-05T12:37:29.079Z,23.41
2023-05-05T12:40:01.930Z,23.41
2023-05-05T12:42:40.515Z,23.79
2023-05-05T12:45:17.996Z,23.85
2023-05-05T12:47:50.816Z,23.12
2023-05-05T12:50:31.923Z,23.25
2023-05-05T12:53:04.700Z,23.46
2023-05-05T12:55:39.725Z,23.53
2023-05-05T12:58:14.046Z,23.48
2023-05-05T13:00:46.903Z,23.37
2023-05-05T13:03:20.408Z,23.07
2023-05-05T13:05:53.502Z,22.93
2023-05-05T13:08:44.161Z,22.20
2023-05-05T13:11:16.917Z,22.09
2023-05-05T13:13:51.110Z,21.86
2023-05-05T13:16:24.160Z,21.19
2023-05-05T13:18:57.687Z,21.90
2023-05-05T13:21:30.601Z,21.59
2023-05-05T13:24:16.226Z,21.57
2023-05-05T13:26:55.716Z,22.08
2023-05-05T13:29:31.607Z,21.22
2023-05-05T13:32:04.743Z,21.80
2023-05-05T13:34:38.917Z,22.21
2023-05-05T13:37:11.676Z,22.14
2023-05-05T13:39:44.464Z,21.55
2023-05-05T13:42:17.242Z,21.10
2023-05-05T13:44:51.554Z,21.36
2023-05-05T13:47:24.282Z,20.91
2023-05-05T13:49:57.164Z,20.72
2023-05-05T13:52:31.738Z,20.59
2023-05-05T13:55:07.216Z,20.30
2023-05-05T13:57:40.326Z,20.13
2023-05-05T14:00:16.180Z,19.67
2023-05-05T14:02:49.290Z,19.34
2023-05-05T14:05:22.331Z,19.70
2023-05-05T14:07:55.871Z,19.68
2023-05-05T14:10:30.884Z,19.15
2023-05-05T14:13:04.153Z,18.54
2023-05-05T14:15:38.382Z,17.78
2023-05-05T14:18:11.208Z,18.15
2023-05-05T14:20:43.969Z,17.79
2023-05-05T14:23:16.798Z,18.10
2023-05-05T14:25:49.605Z,17.53
2023-05-05T14:28:22.475Z,17.70
2023-05-05T14:30:57.097Z,17.10
2023-05-05T14:33:30.055Z,16.39
2023-05-05T14:36:02.923Z,16.25
2023-05-05T14:38:35.785Z,15.95
2023-05-05T14:41:08.683Z,15.99
2023-05-05T14:43:41.496Z,15.95
2023-05-05T14:46:15.759Z,15.89
2023-05-05T14:48:48.636Z,16.00
2023-05-05T14:51:21.563Z,15.43
2023-05-05T14:53:54.661Z,15.26
2023-05-05T14:56:28.367Z,14.92
2023-05-05T14:59:01.174Z,14.64
2023-05-05T15:01:36.324Z,14.85
2023-05-05T15:04:09.721Z,14.91
2023-05-05T15:06:42.667Z,15.02
2023-05-05T15:09:17.975Z,15.32
2023-05-05T15:11:50.799Z,14.92
2023-05-05T15:14:23.711Z,15.00
2023-05-05T15:16:58.050Z,15.62
2023-05-05T15:19:30.968Z,15.65
2023-05-05T15:22:03.772Z,15.76
2023-05-05T15:24:37.285Z,15.96
2023-05-05T15:27:10.433Z,16.25
2023-05-05T15:29:43.216Z,16.41
2023-05-05T15:32:17.768Z,16.33
2023-05-05T15:34:50.953Z,16.66
2023-05-05T15:37:24.070Z,17.05
2023-05-05T15:39:57.173Z,17.36
2023-05-05T15:42:33.393Z,16.90
2023-05-05T15:45:08.012Z,16.69
2023-05-05T15:47:42.419Z,16.47
2023-05-05T15:50:16.095Z,16.56
2023-05-05T15:52:50.032Z,16.28
2023-05-05T15:55:23.715Z,15.53
2023-05-05T15:57:56.972Z,15.34
2023-05-05T16:00:31.300Z,15.68
2023-05-05T16:03:05.689Z,16.39
2023-05-05T16:05:38.554Z,16.55
2023-05-05T16:08:11.428Z,15.90
2023-05-05T16:10:44.249Z,15.98
2023-05-05T16:13:17.305Z,15.47
2023-05-05T16:15:50.260Z,16.25
2023-05-05T16:18:24.426Z,16.24
2023-05-05T16:20:57.902Z,16.72
2023-05-05T16:23:30.833Z,17.10
2023-05-05T16:26:04.526Z,16.85
2023-05-05T16:28:37.581Z,16.62
2023-05-05T16:31:10.679Z,17.02
2023-05-05T16:33:45.774Z,17.17
2023-05-05T16:36:18.612Z,17.28
2023-05-05T16:38:52.261Z,17.15
2023-05-05T16:41:25.916Z,17.15
2023-05-05T16:43:59.450Z,17.36
2023-05-05T16:46:32.460Z,17.62
2023-05-05T16:49:06.757Z,17.75
2023-05-05T16:51:39.647Z,18.00
2023-05-05T16:54:12.517Z,18.06
2023-05-05T16:56:45.602Z,18.02
2023-05-05T16:59:19.150Z,21.99
2023-05-05T17:01:52.254Z,27.19
2023-05-05T17:04:26.510Z,30.23
2023-05-05T17:06:59.385Z,34.34
2023-05-05T17:09:32.217Z,36.00
2023-05-05T17:12:06.087Z,33.78
2023-05-05T17:14:39.538Z,30.95
2023-05-05T17:17:12.887Z,27.19
2023-05-05T17:19:47.130Z,26.02
2023-05-05T17:22:19.962Z,28.13
2023-05-05T17:24:52.894Z,25.71
2023-05-05T17:27:26.080Z,25.73
2023-05-05T17:29:59.577Z,30.95
2023-05-05T17:32:32.510Z,32.34
2023-05-05T17:35:07.992Z,30.90
2023-05-05T17:37:41.117Z,31.69
2023-05-05T17:40:14.139Z,30.39
2023-05-05T17:42:47.237Z,31.26
2023-05-05T17:45:20.034Z,32.77
2023-05-05T17:47:53.304Z,31.97
2023-05-05T17:50:27.549Z,31.83
2023-05-05T17:53:00.776Z,29.16
2023-05-05T17:55:33.607Z,27.92
2023-05-05T17:58:06.451Z,25.58
2023-05-05T18:00:39.827Z,24.39
2023-05-05T18:03:12.912Z,24.04
2023-05-05T18:05:47.488Z,22.57
2023-05-05T18:08:20.527Z,22.13
2023-05-05T18:10:54.510Z,21.76
2023-05-05T18:13:27.351Z,21.21
2023-05-05T18:16:00.439Z,20.66
2023-05-05T18:18:33.423Z,20.38
2023-05-05T18:21:11.764Z,20.09
2023-05-05T18:23:44.688Z,19.52
2023-05-05T18:26:17.886Z,19.61
2023-05-05T18:28:50.947Z,19.31
2023-05-05T18:31:24.713Z,18.95
2023-05-05T18:33:57.582Z,18.70
2023-05-05T18:36:32.075Z,18.46
2023-05-05T18:39:05.336Z,18.86
2023-05-05T18:41:38.292Z,18.75
2023-05-05T18:44:11.323Z,18.55
2023-05-05T18:46:44.304Z,17.39
2023-05-05T18:49:17.217Z,17.77
2023-05-05T18:51:52.063Z,17.80
2023-05-05T18:54:24.877Z,17.84
2023-05-05T18:56:59.165Z,17.64
2023-05-05T18:59:32.661Z,17.50
2023-05-05T19:02:07.853Z,17.22
2023-05-05T19:04:41.249Z,17.23
2023-05-05T19:07:27.621Z,17.15
2023-05-05T19:10:08.281Z,17.07
2023-05-05T19:12:41.394Z,16.94
2023-05-05T19:15:14.346Z,16.86
2023-05-05T19:17:47.537Z,16.72
2023-05-05T19:20:20.743Z,16.53
2023-05-05T19:22:55.624Z,16.43
2023-05-05T19:25:28.593Z,16.22
2023-05-05T19:28:01.975Z,16.15
2023-05-05T19:30:34.847Z,16.15
2023-05-05T19:33:08.713Z,16.08
2023-05-05T19:35:41.713Z,15.99
2023-05-05T19:38:16.209Z,15.66
2023-05-05T19:40:49.213Z,15.39
2023-05-05T19:43:22.252Z,15.57
2023-05-05T19:45:55.163Z,15.66
2023-05-05T19:48:28.516Z,15.42
2023-05-05T19:51:01.768Z,15.14
2023-05-05T19:53:36.353Z,14.97
2023-05-05T19:56:09.310Z,14.73
2023-05-05T19:58:56.509Z,15.01
2023-05-05T20:01:30.138Z,14.67
2023-05-05T20:04:04.183Z,14.70
2023-05-05T20:06:39.269Z,14.79
2023-05-05T20:09:13.534Z,14.85
2023-05-05T20:11:46.573Z,14.79
2023-05-05T20:14:19.457Z,14.80
2023-05-05T20:16:52.530Z,14.73
2023-05-05T20:19:25.490Z,14.75
2023-05-05T20:21:58.769Z,14.60
2023-05-05T20:24:33.797Z,14.60
2023-05-05T20:27:07.983Z,14.65
2023-05-05T20:29:40.981Z,14.66
2023-05-05T20:32:13.975Z,14.52
2023-05-05T20:34:47.244Z,14.37
2023-05-05T20:37:21.762Z,14.36
2023-05-05T20:39:57.262Z,14.21
2023-05-05T20:42:30.549Z,13.83
2023-05-05T20:45:03.814Z,13.81
2023-05-05T20:47:37.850Z,13.93
2023-05-05T20:50:11.307Z,13.96
2023-05-05T20:52:44.435Z,13.78
2023-05-05T20:55:18.643Z,13.81
2023-05-05T20:57:51.387Z,13.63
2023-05-05T21:00:24.647Z,13.52
2023-05-05T21:02:57.870Z,13.58
2023-05-05T21:05:30.961Z,13.60
2023-05-05T21:08:03.859Z,13.48
2023-05-05T21:10:38.391Z,13.46
2023-05-05T21:13:11.205Z,13.17
2023-05-05T21:15:44.001Z,13.23
2023-05-05T21:18:16.974Z,12.97
2023-05-05T21:20:51.480Z,13.01
2023-05-05T21:23:24.362Z,13.03
2023-05-05T21:25:58.678Z,12.96
2023-05-05T21:28:31.466Z,12.84
2023-05-05T21:31:21.066Z,12.86
2023-05-05T21:33:55.181Z,12.81
2023-05-05T21:36:28.054Z,12.68
2023-05-05T21:39:01.240Z,12.77
2023-05-05T21:41:35.550Z,12.74
2023-05-05T21:44:08.347Z,12.90
2023-05-05T21:46:41.314Z,12.86
2023-05-05T21:49:15.233Z,12.90
2023-05-05T21:51:48.253Z,12.85
2023-05-05T21:54:21.098Z,12.80
2023-05-05T21:56:55.246Z,12.77
2023-05-05T21:59:28.089Z,12.65
2023-05-05T22:02:01.401Z,12.49
2023-05-05T22:04:34.357Z,12.21
2023-05-05T22:07:07.481Z,12.32
2023-05-05T22:09:40.427Z,12.25
2023-05-05T22:12:15.247Z,12.20
2023-05-05T22:14:47.898Z,12.28
2023-05-05T22:17:20.670Z,12.36
2023-05-05T22:19:53.508Z,12.33
2023-05-05T22:22:26.427Z,12.16
2023-05-05T22:24:59.283Z,12.39
2023-05-05T22:27:33.433Z,12.52
2023-05-05T22:30:08.175Z,12.43
2023-05-05T22:32:43.280Z,12.29
2023-05-05T22:35:16.173Z,12.06
2023-05-05T22:37:48.949Z,11.92
2023-05-05T22:40:21.796Z,11.87
2023-05-05T22:42:55.917Z,11.89
2023-05-05T22:45:28.841Z,11.88
2023-05-05T22:48:02.184Z,12.06
2023-05-05T22:50:35.712Z,12.18
2023-05-05T22:53:08.716Z,12.20
2023-05-05T22:55:41.548Z,12.13
2023-05-05T22:58:15.717Z,12.03
2023-05-05T23:00:48.779Z,11.87
2023-05-05T23:03:21.594Z,11.95
2023-05-05T23:05:54.418Z,12.05
2023-05-05T23:08:27.265Z,11.93
2023-05-05T23:11:01.252Z,11.73
2023-05-05T23:13:35.598Z,11.93
2023-05-05T23:16:08.589Z,11.97
2023-05-05T23:18:41.515Z,11.92
2023-05-05T23:21:14.517Z,11.97
2023-05-05T23:23:48.347Z,11.93
2023-05-05T23:26:21.493Z,11.75
2023-05-05T23:28:55.797Z,11.85
2023-05-05T23:31:29.298Z,11.88
2023-05-05T23:34:02.230Z,11.89
2023-05-05T23:36:35.973Z,11.76
2023-05-05T23:39:08.807Z,11.59
2023-05-05T23:41:41.906Z,11.57
2023-05-05T23:44:16.197Z,11.56
2023-05-05T23:46:49.093Z,11.64
2023-05-05T23:49:22.079Z,11.80
2023-05-05T23:51:55.619Z,11.77
2023-05-05T23:54:28.605Z,11.73
2023-05-05T23:57:02.163Z,11.68
2023-05-05T23:59:36.452Z,11.70
